Time;durP1;ratioP1;P1;durP2;ratioP2;P2;SDS_P1;SDS_P2;PMS_P1;PMS_P2;Temp;Humidity;BMP_temperature;BMP_pressure;BME280_temperature;BME280_humidity;BME280_pressure;Samples;Min_cycle;Max_cycle;Signal;HPM_P1;HPM_P2
2021/08/12 00:00:49;;;;;;;;;16.75;15.50;;;;;;;;5078481;28;47099;-80
2021/08/12 00:03:15;;;;;;;;;16.50;15.00;;;;;;;;5078735;28;46810;-80
2021/08/12 00:05:41;;;;;;;;;17.75;15.75;;;;;;;;5078632;28;47060;-80
2021/08/12 00:08:06;;;;;;;;;20.50;16.50;;;;;;;;5078629;28;47020;-80
2021/08/12 00:10:32;;;;;;;;;25.50;19.00;;;;;;;;5078390;28;46889;-81
2021/08/12 00:12:57;;;;;;;;;18.50;16.75;;;;;;;;5078370;28;46925;-81
2021/08/12 00:15:22;;;;;;;;;21.00;15.00;;;;;;;;5078696;28;46911;-80
2021/08/12 00:17:48;;;;;;;;;20.25;16.00;;;;;;;;5078579;28;47111;-80
2021/08/12 00:20:13;;;;;;;;;19.25;18.25;;;;;;;;5078400;28;46973;-80
2021/08/12 00:22:38;;;;;;;;;18.25;15.75;;;;;;;;5059604;28;47662;-80
2021/08/12 00:25:05;;;;;;;;;19.00;15.25;;;;;;;;5078378;28;46746;-80
2021/08/12 00:27:30;;;;;;;;;17.50;17.00;;;;;;;;5078116;28;47010;-80
2021/08/12 00:29:56;;;;;;;;;16.00;15.50;;;;;;;;5078356;28;46892;-80
2021/08/12 00:32:21;;;;;;;;;18.50;16.25;;;;;;;;5078127;28;46887;-81
2021/08/12 00:34:47;;;;;;;;;15.00;13.25;;;;;;;;5078300;28;46931;-80
2021/08/12 00:37:12;;;;;;;;;17.00;15.50;;;;;;;;5078086;28;47014;-80
2021/08/12 00:39:37;;;;;;;;;22.25;16.00;;;;;;;;5078234;28;46966;-80
2021/08/12 00:42:03;;;;;;;;;19.25;16.25;;;;;;;;5077981;28;47123;-80
2021/08/12 00:44:28;;;;;;;;;19.50;16.50;;;;;;;;5078034;28;46979;-80
2021/08/12 00:46:54;;;;;;;;;16.50;15.00;;;;;;;;5078063;28;47168;-80
2021/08/12 00:49:19;;;;;;;;;19.00;16.00;;;;;;;;5078032;28;47033;-80
2021/08/12 00:51:45;;;;;;;;;19.00;16.75;;;;;;;;5078013;28;47122;-80
2021/08/12 00:54:11;;;;;;;;;16.50;10.25;;;;;;;;5077734;28;47020;-80
2021/08/12 00:56:36;;;;;;;;;21.75;18.00;;;;;;;;5062479;28;46986;-80
2021/08/12 00:59:02;;;;;;;;;22.25;19.75;;;;;;;;5081423;28;47963;-80
2021/08/12 01:01:27;;;;;;;;;19.50;18.75;;;;;;;;5081390;28;47079;-80
2021/08/12 01:03:54;;;;;;;;;21.00;19.50;;;;;;;;5081468;28;46918;-80
2021/08/12 01:06:26;;;;;;;;;21.50;18.75;;;;;;;;5081568;28;46862;-81
2021/08/12 01:08:58;;;;;;;;;22.25;18.50;;;;;;;;5080973;28;47650;-81
2021/08/12 01:11:44;;;;;;;;;21.50;18.25;;;;;;;;5081340;28;46874;-81
2021/08/12 01:14:16;;;;;;;;;24.50;19.25;;;;;;;;5062684;28;47221;-81
2021/08/12 01:16:46;;;;;;;;;20.75;19.25;;;;;;;;5081498;28;46831;-81
2021/08/12 01:19:29;;;;;;;;;19.00;17.25;;;;;;;;5062800;28;49684;-80
2021/08/12 01:21:57;;;;;;;;;19.75;17.00;;;;;;;;5081020;28;47198;-80
2021/08/12 01:24:25;;;;;;;;;18.75;17.75;;;;;;;;5081063;28;46973;-80
2021/08/12 01:26:53;;;;;;;;;17.75;15.25;;;;;;;;5068049;28;47304;-80
2021/08/12 01:29:25;;;;;;;;;15.50;15.00;;;;;;;;5081060;28;47961;-80
2021/08/12 01:31:53;;;;;;;;;16.75;16.25;;;;;;;;5080995;28;46847;-80
2021/08/12 01:34:18;;;;;;;;;18.75;17.50;;;;;;;;5081119;28;47107;-80
2021/08/12 01:36:46;;;;;;;;;17.50;16.00;;;;;;;;5081197;28;47199;-80
2021/08/12 01:39:13;;;;;;;;;25.00;19.25;;;;;;;;5080631;28;47015;-80
2021/08/12 01:41:39;;;;;;;;;16.50;16.50;;;;;;;;5080741;28;46892;-80
2021/08/12 01:44:05;;;;;;;;;22.25;19.25;;;;;;;;5080917;28;46851;-80
2021/08/12 01:46:30;;;;;;;;;24.00;19.75;;;;;;;;5080936;28;47169;-80
2021/08/12 01:48:56;;;;;;;;;22.50;19.00;;;;;;;;5062358;28;46898;-81
2021/08/12 01:51:23;;;;;;;;;22.25;21.25;;;;;;;;5080499;28;46824;-81
2021/08/12 01:53:49;;;;;;;;;23.25;20.00;;;;;;;;5080517;28;46922;-81
2021/08/12 01:56:16;;;;;;;;;24.00;21.00;;;;;;;;5080851;28;47038;-81
2021/08/12 01:58:42;;;;;;;;;24.50;23.00;;;;;;;;5062243;28;48060;-81
2021/08/12 02:01:08;;;;;;;;;19.75;16.50;;;;;;;;5080504;28;47077;-81
2021/08/12 02:03:33;;;;;;;;;20.75;19.50;;;;;;;;5080666;28;46902;-81
2021/08/12 02:05:59;;;;;;;;;19.25;17.75;;;;;;;;5080344;28;46962;-80
2021/08/12 02:08:24;;;;;;;;;22.00;19.50;;;;;;;;5080105;28;47974;-80
2021/08/12 02:10:50;;;;;;;;;23.50;23.25;;;;;;;;5080299;28;47002;-81
2021/08/12 02:13:16;;;;;;;;;23.25;20.75;;;;;;;;5061691;28;46884;-81
2021/08/12 02:15:41;;;;;;;;;18.75;16.75;;;;;;;;5062079;28;47337;-81
2021/08/12 02:18:06;;;;;;;;;25.75;20.25;;;;;;;;5080402;28;47939;-81
2021/08/12 02:20:33;;;;;;;;;20.25;18.25;;;;;;;;5080157;28;47184;-81
2021/08/12 02:23:04;;;;;;;;;24.75;20.50;;;;;;;;5080183;28;47018;-81
2021/08/12 02:25:32;;;;;;;;;21.00;19.00;;;;;;;;5059373;28;47353;-80
2021/08/12 02:28:00;;;;;;;;;22.00;15.75;;;;;;;;5069696;28;47761;-79
2021/08/12 02:30:25;;;;;;;;;18.00;16.00;;;;;;;;5080009;28;47126;-79
2021/08/12 02:32:52;;;;;;;;;15.75;13.75;;;;;;;;5080153;28;46976;-79
2021/08/12 02:35:19;;;;;;;;;19.00;15.75;;;;;;;;5080169;28;47093;-79
2021/08/12 02:37:46;;;;;;;;;15.50;14.50;;;;;;;;5079824;28;46822;-80
2021/08/12 02:40:11;;;;;;;;;14.75;13.25;;;;;;;;5061578;28;47570;-80
2021/08/12 02:42:40;;;;;;;;;14.25;13.50;;;;;;;;5079956;28;47028;-80
2021/08/12 02:45:06;;;;;;;;;14.50;12.75;;;;;;;;5079942;28;47345;-80
2021/08/12 02:47:31;;;;;;;;;16.50;14.25;;;;;;;;5079874;28;47103;-80
2021/08/12 02:49:58;;;;;;;;;17.75;14.75;;;;;;;;5079589;28;47004;-82
2021/08/12 02:52:24;;;;;;;;;15.00;12.50;;;;;;;;5061266;28;46821;-82
2021/08/12 02:54:50;;;;;;;;;15.75;15.00;;;;;;;;5079797;28;46891;-81
2021/08/12 02:57:16;;;;;;;;;17.50;14.50;;;;;;;;5079483;28;47961;-81
2021/08/12 02:59:42;;;;;;;;;16.00;15.00;;;;;;;;5061188;28;47471;-81
2021/08/12 03:02:08;;;;;;;;;16.25;14.75;;;;;;;;5079653;28;47147;-81
2021/08/12 03:04:33;;;;;;;;;18.00;15.00;;;;;;;;5061330;28;46982;-81
2021/08/12 03:06:59;;;;;;;;;17.25;14.00;;;;;;;;5079138;28;48258;-81
2021/08/12 03:09:25;;;;;;;;;15.00;14.00;;;;;;;;5079431;28;46917;-81
2021/08/12 03:11:52;;;;;;;;;15.00;12.75;;;;;;;;5079464;28;47016;-81
2021/08/12 03:14:18;;;;;;;;;17.25;15.00;;;;;;;;5079220;28;46916;-79
2021/08/12 03:16:44;;;;;;;;;16.00;14.00;;;;;;;;5079392;28;47852;-80
2021/08/12 03:19:09;;;;;;;;;18.50;15.75;;;;;;;;5078371;28;47005;-80
2021/08/12 03:21:35;;;;;;;;;15.75;15.00;;;;;;;;5079217;28;46861;-80
2021/08/12 03:24:04;;;;;;;;;15.50;13.75;;;;;;;;5079176;28;46755;-76
2021/08/12 03:26:29;;;;;;;;;15.75;12.75;;;;;;;;5068440;28;47838;-78
2021/08/12 03:28:54;;;;;;;;;16.50;16.50;;;;;;;;5077066;28;47015;-81
2021/08/12 03:31:20;;;;;;;;;16.75;15.00;;;;;;;;5079069;28;46924;-81
2021/08/12 03:33:45;;;;;;;;;16.50;14.75;;;;;;;;5079257;28;47031;-80
2021/08/12 03:36:10;;;;;;;;;21.75;13.75;;;;;;;;5079120;28;47881;-81
2021/08/12 03:38:36;;;;;;;;;22.00;15.75;;;;;;;;5078677;28;47129;-81
2021/08/12 03:41:01;;;;;;;;;13.75;13.00;;;;;;;;5079136;28;47170;-81
2021/08/12 03:43:27;;;;;;;;;15.50;13.50;;;;;;;;5079279;28;47055;-80
2021/08/12 03:45:52;;;;;;;;;14.50;13.25;;;;;;;;5060732;28;48288;-80
2021/08/12 03:48:17;;;;;;;;;15.75;14.00;;;;;;;;5078893;28;47097;-80
2021/08/12 03:50:43;;;;;;;;;18.75;15.75;;;;;;;;5060702;28;47134;-80
2021/08/12 03:53:08;;;;;;;;;17.25;14.00;;;;;;;;5060270;28;47086;-80
2021/08/12 03:55:33;;;;;;;;;14.25;12.25;;;;;;;;5078701;28;46948;-80
2021/08/12 03:57:59;;;;;;;;;12.25;11.00;;;;;;;;5078468;28;47159;-80
2021/08/12 04:00:24;;;;;;;;;11.25;9.00;;;;;;;;5078792;28;47094;-81
2021/08/12 04:02:50;;;;;;;;;12.75;12.50;;;;;;;;5078834;28;47017;-80
2021/08/12 04:05:15;;;;;;;;;14.00;12.50;;;;;;;;5060347;28;49584;-80
2021/08/12 04:07:40;;;;;;;;;14.00;11.75;;;;;;;;5078272;28;46968;-80
2021/08/12 04:10:06;;;;;;;;;11.75;10.00;;;;;;;;5060342;28;46935;-80
2021/08/12 04:12:31;;;;;;;;;13.00;12.00;;;;;;;;5078488;28;46998;-80
2021/08/12 04:14:57;;;;;;;;;11.25;10.00;;;;;;;;5078391;28;47547;-80
2021/08/12 04:17:22;;;;;;;;;14.75;14.00;;;;;;;;5078412;28;46948;-80
2021/08/12 04:19:47;;;;;;;;;13.50;12.00;;;;;;;;5078636;28;47163;-80
2021/08/12 04:22:12;;;;;;;;;9.50;9.50;;;;;;;;5078249;28;46888;-81
2021/08/12 04:24:38;;;;;;;;;12.75;9.00;;;;;;;;5078285;28;47348;-81
2021/08/12 04:27:03;;;;;;;;;10.00;9.25;;;;;;;;5065153;28;47049;-80
2021/08/12 04:29:29;;;;;;;;;10.75;9.75;;;;;;;;5079437;28;47107;-80
2021/08/12 04:31:54;;;;;;;;;14.25;11.00;;;;;;;;5082330;28;46889;-80
2021/08/12 04:34:20;;;;;;;;;10.75;10.25;;;;;;;;5063555;28;50180;-80
2021/08/12 04:36:45;;;;;;;;;11.25;9.25;;;;;;;;5081830;28;47010;-80
2021/08/12 04:39:10;;;;;;;;;10.50;8.50;;;;;;;;5081836;28;47112;-80
2021/08/12 04:41:36;;;;;;;;;13.00;10.50;;;;;;;;5082029;28;46912;-80
2021/08/12 04:44:01;;;;;;;;;9.00;9.00;;;;;;;;5081651;28;47163;-80
2021/08/12 04:46:26;;;;;;;;;11.75;11.50;;;;;;;;5081759;28;46952;-80
2021/08/12 04:48:52;;;;;;;;;11.50;10.75;;;;;;;;5082147;28;46931;-80
2021/08/12 04:51:17;;;;;;;;;13.00;12.50;;;;;;;;5081915;28;47380;-80
2021/08/12 04:53:42;;;;;;;;;11.75;10.75;;;;;;;;5081378;28;46760;-80
2021/08/12 04:56:08;;;;;;;;;12.75;11.00;;;;;;;;5081412;28;46843;-80
2021/08/12 04:58:33;;;;;;;;;10.00;10.00;;;;;;;;5081632;28;46843;-80
2021/08/12 05:00:58;;;;;;;;;10.50;8.75;;;;;;;;5081588;28;46738;-80
2021/08/12 05:03:24;;;;;;;;;17.50;12.75;;;;;;;;5081584;28;46781;-80
2021/08/12 05:05:49;;;;;;;;;11.50;10.50;;;;;;;;5081437;28;46827;-80
2021/08/12 05:08:14;;;;;;;;;12.00;9.50;;;;;;;;5081303;28;46892;-80
2021/08/12 05:10:44;;;;;;;;;11.00;11.00;;;;;;;;5081474;28;47168;-80
2021/08/12 05:13:09;;;;;;;;;14.75;13.00;;;;;;;;5081005;28;47788;-80
2021/08/12 05:15:34;;;;;;;;;18.00;14.00;;;;;;;;5062832;28;47002;-80
2021/08/12 05:17:59;;;;;;;;;11.75;9.75;;;;;;;;5081730;28;47066;-80
2021/08/12 05:20:25;;;;;;;;;10.50;9.75;;;;;;;;5081258;28;47267;-80
2021/08/12 05:22:50;;;;;;;;;12.00;10.25;;;;;;;;5062631;28;48244;-80
2021/08/12 05:25:16;;;;;;;;;12.00;10.50;;;;;;;;5080552;28;46997;-80
2021/08/12 05:27:41;;;;;;;;;13.75;10.25;;;;;;;;5068452;28;47024;-80
2021/08/12 05:30:06;;;;;;;;;10.50;10.25;;;;;;;;5081469;28;47080;-80
2021/08/12 05:32:32;;;;;;;;;10.75;10.75;;;;;;;;5081181;28;47847;-80
2021/08/12 05:34:57;;;;;;;;;10.25;10.25;;;;;;;;5080740;28;46770;-80
2021/08/12 05:37:22;;;;;;;;;11.00;9.75;;;;;;;;5080855;28;47030;-80
2021/08/12 05:39:48;;;;;;;;;15.00;12.00;;;;;;;;5081114;28;46963;-80
2021/08/12 05:42:13;;;;;;;;;14.75;14.00;;;;;;;;5061684;28;48536;-80
2021/08/12 05:44:38;;;;;;;;;14.50;13.25;;;;;;;;5080807;28;46919;-80
2021/08/12 05:47:04;;;;;;;;;17.25;13.25;;;;;;;;5080933;28;46847;-80
2021/08/12 05:49:29;;;;;;;;;11.75;9.00;;;;;;;;5062620;28;47218;-80
2021/08/12 05:51:54;;;;;;;;;14.75;12.00;;;;;;;;5080459;28;46788;-80
2021/08/12 05:54:20;;;;;;;;;14.75;13.00;;;;;;;;5062420;28;47793;-80
2021/08/12 05:56:45;;;;;;;;;13.50;12.25;;;;;;;;5062274;28;46860;-80
2021/08/12 05:59:10;;;;;;;;;12.00;11.75;;;;;;;;5080879;28;46813;-80
2021/08/12 06:01:36;;;;;;;;;11.00;11.00;;;;;;;;5080541;28;46883;-80
2021/08/12 06:04:01;;;;;;;;;13.50;12.00;;;;;;;;5080773;28;46835;-80
2021/08/12 06:06:26;;;;;;;;;14.00;12.00;;;;;;;;5080352;28;47066;-80
2021/08/12 06:08:52;;;;;;;;;15.00;14.00;;;;;;;;5080587;28;46822;-80
2021/08/12 06:11:17;;;;;;;;;16.25;15.00;;;;;;;;5061884;28;48523;-80
2021/08/12 06:13:43;;;;;;;;;8.00;8.00;;;;;;;;5080082;28;47009;-80
2021/08/12 06:16:08;;;;;;;;;13.50;12.75;;;;;;;;5080293;28;47125;-80
2021/08/12 06:18:33;;;;;;;;;12.00;11.25;;;;;;;;5080805;28;46934;-80
2021/08/12 06:20:59;;;;;;;;;13.25;12.25;;;;;;;;5079941;28;47009;-80
2021/08/12 06:23:24;;;;;;;;;12.00;8.50;;;;;;;;5080126;28;46944;-80
2021/08/12 06:25:50;;;;;;;;;15.25;13.75;;;;;;;;5074760;28;47148;-80
2021/08/12 06:28:15;;;;;;;;;10.75;9.50;;;;;;;;5072270;28;46899;-80
2021/08/12 06:30:40;;;;;;;;;12.25;12.25;;;;;;;;5061788;28;47030;-80
2021/08/12 06:33:06;;;;;;;;;12.00;11.00;;;;;;;;5080088;28;46897;-80
2021/08/12 06:35:32;;;;;;;;;14.75;13.75;;;;;;;;5080021;28;46799;-80
2021/08/12 06:37:58;;;;;;;;;11.50;9.50;;;;;;;;5080146;28;47063;-80
2021/08/12 06:40:24;;;;;;;;;13.25;11.00;;;;;;;;5079775;28;46796;-80
2021/08/12 06:42:50;;;;;;;;;11.00;10.75;;;;;;;;5079870;28;47008;-80
2021/08/12 06:45:16;;;;;;;;;12.00;10.75;;;;;;;;5079794;28;47067;-80
2021/08/12 06:47:41;;;;;;;;;11.50;10.00;;;;;;;;5061701;28;47164;-80
2021/08/12 06:50:07;;;;;;;;;10.50;7.75;;;;;;;;5079844;28;47821;-80
2021/08/12 06:52:33;;;;;;;;;12.50;11.25;;;;;;;;5078558;28;46905;-80
2021/08/12 06:54:59;;;;;;;;;15.25;12.75;;;;;;;;5079487;28;46903;-80
2021/08/12 06:57:24;;;;;;;;;13.50;12.50;;;;;;;;5079849;28;47029;-80
2021/08/12 06:59:50;;;;;;;;;13.00;13.00;;;;;;;;5079544;28;46879;-80
2021/08/12 07:02:15;;;;;;;;;12.25;12.25;;;;;;;;5079658;28;46955;-80
2021/08/12 07:04:40;;;;;;;;;15.25;12.25;;;;;;;;5079659;28;46958;-80
2021/08/12 07:07:06;;;;;;;;;14.00;12.75;;;;;;;;5079621;28;47042;-80
2021/08/12 07:09:31;;;;;;;;;14.50;13.25;;;;;;;;5079343;28;47044;-80
2021/08/12 07:11:57;;;;;;;;;15.75;12.75;;;;;;;;5079343;28;47032;-80
2021/08/12 07:14:22;;;;;;;;;15.00;10.25;;;;;;;;5079168;28;46938;-80
2021/08/12 07:16:48;;;;;;;;;12.75;12.75;;;;;;;;5079594;28;46951;-80
2021/08/12 07:19:13;;;;;;;;;14.75;14.00;;;;;;;;5060789;28;47335;-80
2021/08/12 07:21:41;;;;;;;;;13.75;11.50;;;;;;;;5079135;28;46793;-80
2021/08/12 07:24:07;;;;;;;;;12.00;10.25;;;;;;;;5079306;28;47068;-80
2021/08/12 07:26:33;;;;;;;;;9.50;8.00;;;;;;;;5068214;28;47090;-80
2021/08/12 07:28:59;;;;;;;;;12.50;7.25;;;;;;;;5076978;28;46943;-80
2021/08/12 07:31:24;;;;;;;;;8.50;8.50;;;;;;;;5079269;28;47001;-80
2021/08/12 07:33:49;;;;;;;;;7.50;7.00;;;;;;;;5060809;28;46948;-80
2021/08/12 07:36:15;;;;;;;;;10.00;8.75;;;;;;;;5061010;28;46934;-80
2021/08/12 07:38:40;;;;;;;;;8.25;8.25;;;;;;;;5078715;28;47777;-80
2021/08/12 07:41:06;;;;;;;;;9.25;8.00;;;;;;;;5079284;28;47061;-80
2021/08/12 07:43:31;;;;;;;;;10.25;8.50;;;;;;;;5078869;28;47085;-80
2021/08/12 07:45:57;;;;;;;;;9.00;9.00;;;;;;;;5079274;28;46974;-80
2021/08/12 07:48:22;;;;;;;;;6.25;6.25;;;;;;;;5078849;28;48286;-80
2021/08/12 07:50:48;;;;;;;;;9.50;9.50;;;;;;;;5079044;28;46829;-80
2021/08/12 07:53:13;;;;;;;;;12.50;10.75;;;;;;;;5078404;28;46935;-80
2021/08/12 07:55:39;;;;;;;;;9.25;7.00;;;;;;;;5079023;28;46990;-80
2021/08/12 07:58:04;;;;;;;;;10.00;8.50;;;;;;;;5078517;28;47803;-80
2021/08/12 08:00:30;;;;;;;;;9.25;8.75;;;;;;;;5078710;28;46772;-80
2021/08/12 08:02:55;;;;;;;;;10.00;8.00;;;;;;;;5078682;28;46832;-80
2021/08/12 08:05:22;;;;;;;;;11.00;8.25;;;;;;;;5078521;28;48010;-80
2021/08/12 08:07:49;;;;;;;;;10.00;9.00;;;;;;;;5078132;28;47028;-80
2021/08/12 08:10:14;;;;;;;;;10.25;8.75;;;;;;;;5078687;28;46872;-80
2021/08/12 08:12:41;;;;;;;;;12.50;10.50;;;;;;;;5059919;28;47037;-80
2021/08/12 08:15:11;;;;;;;;;19.75;11.50;;;;;;;;5078586;28;47307;-80
2021/08/12 08:17:37;;;;;;;;;13.50;10.50;;;;;;;;5078327;28;46913;-80
2021/08/12 08:20:03;;;;;;;;;12.25;11.50;;;;;;;;5060198;28;46939;-80
2021/08/12 08:22:28;;;;;;;;;9.50;8.25;;;;;;;;5078135;28;46949;-80
2021/08/12 08:24:53;;;;;;;;;16.25;11.00;;;;;;;;5078663;28;47039;-80
2021/08/12 08:27:19;;;;;;;;;12.00;12.00;;;;;;;;5065040;28;47116;-80
2021/08/12 08:29:44;;;;;;;;;10.50;10.25;;;;;;;;5078443;28;46849;-80
2021/08/12 08:32:09;;;;;;;;;14.25;11.00;;;;;;;;5078291;28;47153;-80
2021/08/12 08:34:35;;;;;;;;;13.50;12.00;;;;;;;;5078369;28;47095;-80
2021/08/12 08:37:00;;;;;;;;;11.00;11.00;;;;;;;;5077843;28;47879;-80
2021/08/12 08:39:25;;;;;;;;;11.00;11.00;;;;;;;;5078402;28;46972;-80
2021/08/12 08:41:51;;;;;;;;;9.25;9.00;;;;;;;;5078131;28;47199;-80
2021/08/12 08:44:21;;;;;;;;;10.25;8.00;;;;;;;;5078406;28;46910;-80
2021/08/12 08:46:47;;;;;;;;;10.25;9.25;;;;;;;;5077944;28;48019;-80
2021/08/12 08:49:13;;;;;;;;;12.75;9.75;;;;;;;;5078233;28;46894;-80
2021/08/12 08:51:39;;;;;;;;;11.00;10.75;;;;;;;;5077791;28;47002;-80
2021/08/12 08:54:04;;;;;;;;;10.00;9.75;;;;;;;;5078272;28;46960;-80
2021/08/12 08:56:31;;;;;;;;;9.50;8.25;;;;;;;;5077694;28;46920;-80
2021/08/12 08:58:56;;;;;;;;;9.00;7.50;;;;;;;;5078000;28;47010;-81
2021/08/12 09:01:21;;;;;;;;;11.50;10.50;;;;;;;;5059678;28;47174;-80
2021/08/12 09:03:49;;;;;;;;;10.50;8.25;;;;;;;;5078322;28;47000;-80
2021/08/12 09:06:14;;;;;;;;;11.25;11.00;;;;;;;;5077757;28;46881;-80
2021/08/12 09:08:39;;;;;;;;;8.00;8.00;;;;;;;;5077798;28;46901;-80
2021/08/12 09:11:05;;;;;;;;;8.75;8.00;;;;;;;;5077840;28;46746;-80
2021/08/12 09:13:30;;;;;;;;;13.50;10.00;;;;;;;;5077711;28;46782;-80
2021/08/12 09:15:55;;;;;;;;;9.00;9.00;;;;;;;;5077815;28;47533;-80
2021/08/12 09:18:24;;;;;;;;;9.50;8.25;;;;;;;;5081425;28;46816;-80
2021/08/12 09:20:50;;;;;;;;;11.00;8.50;;;;;;;;5081111;28;47001;-80
2021/08/12 09:23:21;;;;;;;;;10.50;9.00;;;;;;;;5081191;28;47020;-80
2021/08/12 09:25:48;;;;;;;;;10.75;9.25;;;;;;;;5076128;28;46906;-80
2021/08/12 09:28:30;;;;;;;;;10.00;9.25;;;;;;;;5073032;28;46849;-80
2021/08/12 09:30:59;;;;;;;;;9.50;7.75;;;;;;;;5081186;28;47090;-80
2021/08/12 09:33:25;;;;;;;;;11.25;9.00;;;;;;;;5081094;28;47037;-80
2021/08/12 09:35:50;;;;;;;;;7.50;7.50;;;;;;;;5081102;28;47004;-80
2021/08/12 09:38:15;;;;;;;;;10.50;10.00;;;;;;;;5080726;28;47008;-80
2021/08/12 09:40:43;;;;;;;;;12.00;10.75;;;;;;;;5081058;28;46943;-80
2021/08/12 09:43:10;;;;;;;;;11.00;9.00;;;;;;;;5062610;28;46766;-80
2021/08/12 09:45:36;;;;;;;;;8.75;8.50;;;;;;;;5080861;28;46877;-80
2021/08/12 09:48:08;;;;;;;;;9.25;8.50;;;;;;;;5080855;28;46733;-80
2021/08/12 09:50:35;;;;;;;;;11.25;10.75;;;;;;;;5080862;28;46903;-80
2021/08/12 09:53:01;;;;;;;;;11.00;10.25;;;;;;;;5080815;28;47086;-80
2021/08/12 09:55:27;;;;;;;;;11.25;9.25;;;;;;;;5080562;28;47234;-80
2021/08/12 09:57:53;;;;;;;;;11.00;8.75;;;;;;;;5080388;28;47091;-80
2021/08/12 10:00:25;;;;;;;;;10.00;9.00;;;;;;;;5080832;28;46989;-80
2021/08/12 10:02:51;;;;;;;;;10.00;7.25;;;;;;;;5080681;28;47024;-80
2021/08/12 10:05:16;;;;;;;;;10.25;9.75;;;;;;;;5080442;28;46912;-80
2021/08/12 10:07:45;;;;;;;;;11.00;8.50;;;;;;;;5080228;28;46789;-80
2021/08/12 10:10:11;;;;;;;;;11.50;9.75;;;;;;;;5080572;28;47145;-80
2021/08/12 10:12:36;;;;;;;;;10.25;8.75;;;;;;;;5080275;28;46964;-80
2021/08/12 10:15:01;;;;;;;;;10.00;9.00;;;;;;;;5080318;28;47849;-81
2021/08/12 10:17:28;;;;;;;;;10.50;9.25;;;;;;;;5061810;28;46985;-80
2021/08/12 10:19:53;;;;;;;;;12.75;9.25;;;;;;;;5080419;28;46969;-80
2021/08/12 10:22:19;;;;;;;;;9.00;8.75;;;;;;;;5080064;28;46847;-80
2021/08/12 10:24:44;;;;;;;;;11.25;9.00;;;;;;;;5080075;28;47049;-80
2021/08/12 10:27:11;;;;;;;;;10.50;9.25;;;;;;;;5066662;28;46841;-80
2021/08/12 10:29:37;;;;;;;;;10.50;9.00;;;;;;;;5080209;28;46805;-80
2021/08/12 10:32:03;;;;;;;;;10.50;7.00;;;;;;;;5061973;28;47026;-80
2021/08/12 10:34:28;;;;;;;;;9.25;9.25;;;;;;;;5079754;28;47021;-81
2021/08/12 10:36:54;;;;;;;;;14.25;9.75;;;;;;;;5061419;28;47164;-80
2021/08/12 10:39:21;;;;;;;;;12.50;12.00;;;;;;;;5080084;28;47113;-80
2021/08/12 10:41:47;;;;;;;;;11.75;8.75;;;;;;;;5080040;28;47367;-80
2021/08/12 10:44:18;;;;;;;;;13.50;11.75;;;;;;;;5079697;28;47643;-80
2021/08/12 10:46:43;;;;;;;;;12.25;11.75;;;;;;;;5079733;28;47195;-80
2021/08/12 10:49:24;;;;;;;;;7.50;7.25;;;;;;;;5079828;28;47064;-80
2021/08/12 10:52:06;;;;;;;;;9.50;8.00;;;;;;;;5079674;28;47086;-80
2021/08/12 10:54:33;;;;;;;;;10.50;10.25;;;;;;;;5061106;28;48529;-80
2021/08/12 10:57:13;;;;;;;;;10.25;8.75;;;;;;;;5079692;28;46796;-80
2021/08/12 10:59:39;;;;;;;;;12.25;9.50;;;;;;;;5079592;28;47017;-80
2021/08/12 11:02:23;;;;;;;;;9.75;9.00;;;;;;;;5079876;28;47088;-80
2021/08/12 11:04:49;;;;;;;;;9.50;7.75;;;;;;;;5079538;28;47010;-80
2021/08/12 11:07:35;;;;;;;;;12.25;10.00;;;;;;;;5079234;28;46868;-80
2021/08/12 11:10:00;;;;;;;;;14.00;10.25;;;;;;;;5078971;27;47021;-80
2021/08/12 11:12:45;;;;;;;;;10.25;9.00;;;;;;;;5079355;28;46924;-80
2021/08/12 11:15:10;;;;;;;;;9.50;9.50;;;;;;;;5078947;27;47879;-81
2021/08/12 11:17:53;;;;;;;;;13.75;10.75;;;;;;;;5079170;28;47057;-80
2021/08/12 11:20:32;;;;;;;;;12.25;10.50;;;;;;;;5079407;28;47126;-80
2021/08/12 11:23:17;;;;;;;;;12.00;9.25;;;;;;;;5067431;28;46936;-80
2021/08/12 11:25:55;;;;;;;;;9.25;6.00;;;;;;;;5056239;28;47711;-80
2021/08/12 11:28:38;;;;;;;;;8.75;8.75;;;;;;;;5071866;28;46855;-80
2021/08/12 11:31:04;;;;;;;;;9.75;8.50;;;;;;;;5079175;28;47141;-80
2021/08/12 11:33:30;;;;;;;;;17.75;13.25;;;;;;;;5079075;28;47027;-80
2021/08/12 11:36:12;;;;;;;;;60.25;47.25;;;;;;;;5078911;28;47035;-80
2021/08/12 11:38:40;;;;;;;;;38.25;32.50;;;;;;;;5078157;28;47039;-80
2021/08/12 11:41:06;;;;;;;;;26.50;25.50;;;;;;;;5078876;28;46794;-80
2021/08/12 11:43:33;;;;;;;;;57.50;46.00;;;;;;;;5078897;28;47015;-80
2021/08/12 11:46:00;;;;;;;;;17.75;16.25;;;;;;;;5078840;28;47049;-80
2021/08/12 11:48:29;;;;;;;;;12.75;10.50;;;;;;;;5078646;28;46918;-80
2021/08/12 11:50:58;;;;;;;;;13.25;11.25;;;;;;;;5078835;28;46965;-81
2021/08/12 11:53:59;;;;;;;;;11.00;9.25;;;;;;;;5078480;28;47030;-81
2021/08/12 11:56:27;;;;;;;;;9.00;8.00;;;;;;;;4996016;28;46942;-81
2021/08/12 11:58:56;;;;;;;;;10.25;9.25;;;;;;;;5056826;28;47252;-81
2021/08/12 12:01:25;;;;;;;;;10.75;9.75;;;;;;;;5078567;28;46902;-81
2021/08/12 12:04:00;;;;;;;;;11.25;8.50;;;;;;;;5078787;28;46983;-80
2021/08/12 12:06:30;;;;;;;;;9.25;9.00;;;;;;;;5078086;28;47924;-80
2021/08/12 12:08:55;;;;;;;;;11.50;10.00;;;;;;;;5078573;28;46890;-80
2021/08/12 12:11:20;;;;;;;;;10.25;9.00;;;;;;;;5078571;28;46849;-80
2021/08/12 12:13:46;;;;;;;;;12.50;9.25;;;;;;;;5078277;28;46868;-81
2021/08/12 12:16:11;;;;;;;;;11.50;8.25;;;;;;;;5078297;28;47028;-81
2021/08/12 12:18:38;;;;;;;;;10.00;9.00;;;;;;;;5078496;28;46928;-81
2021/08/12 12:21:08;;;;;;;;;12.25;10.00;;;;;;;;5078156;28;46872;-80
2021/08/12 12:23:34;;;;;;;;;9.50;8.25;;;;;;;;5077974;28;47140;-80
2021/08/12 12:25:59;;;;;;;;;10.50;8.75;;;;;;;;5053205;28;48675;-81
2021/08/12 12:28:25;;;;;;;;;11.50;7.50;;;;;;;;5071233;28;46993;-81
2021/08/12 12:30:50;;;;;;;;;12.50;9.00;;;;;;;;5078559;28;46892;-81
2021/08/12 12:33:16;;;;;;;;;13.00;11.25;;;;;;;;5078365;28;46813;-80
2021/08/12 12:35:43;;;;;;;;;9.50;9.00;;;;;;;;5077879;28;47102;-81
2021/08/12 12:38:10;;;;;;;;;12.00;9.00;;;;;;;;5077907;28;46835;-81
2021/08/12 12:40:37;;;;;;;;;13.75;10.00;;;;;;;;5078057;28;46792;-81
2021/08/12 12:43:02;;;;;;;;;10.00;10.00;;;;;;;;5059838;28;46849;-81
2021/08/12 12:45:28;;;;;;;;;10.75;9.00;;;;;;;;5077943;28;47778;-81
2021/08/12 12:48:04;;;;;;;;;10.25;9.25;;;;;;;;5077979;28;47070;-81
2021/08/12 12:50:39;;;;;;;;;9.00;9.00;;;;;;;;5079243;28;47023;-81
2021/08/12 12:53:04;;;;;;;;;10.00;8.00;;;;;;;;5081537;28;46943;-81
2021/08/12 12:55:38;;;;;;;;;12.75;9.00;;;;;;;;5081434;28;47011;-81
2021/08/12 12:58:16;;;;;;;;;5.75;5.75;;;;;;;;5081264;28;47242;-81
2021/08/12 13:00:43;;;;;;;;;10.00;9.00;;;;;;;;5081679;28;46998;-81
2021/08/12 13:03:08;;;;;;;;;11.00;9.50;;;;;;;;5081478;28;46842;-81
2021/08/12 13:05:47;;;;;;;;;12.50;8.50;;;;;;;;5081424;28;46843;-81
2021/08/12 13:08:12;;;;;;;;;11.75;10.75;;;;;;;;5081156;28;47025;-80
2021/08/12 13:10:38;;;;;;;;;10.25;8.25;;;;;;;;5081366;28;46828;-80
2021/08/12 13:13:03;;;;;;;;;10.75;9.00;;;;;;;;5081270;28;46912;-80
2021/08/12 13:15:29;;;;;;;;;9.25;9.00;;;;;;;;5080938;28;47228;-80
2021/08/12 13:17:57;;;;;;;;;12.00;8.50;;;;;;;;5081376;28;47007;-81
2021/08/12 13:20:22;;;;;;;;;11.50;9.50;;;;;;;;5081048;28;46935;-81
2021/08/12 13:22:48;;;;;;;;;10.00;10.00;;;;;;;;5081169;28;46793;-81
2021/08/12 13:25:15;;;;;;;;;11.50;10.00;;;;;;;;5080686;28;46822;-81
2021/08/12 13:27:44;;;;;;;;;10.00;9.75;;;;;;;;5068589;28;47013;-81
2021/08/12 13:30:10;;;;;;;;;11.75;10.00;;;;;;;;5080963;28;46915;-81
2021/08/12 13:32:36;;;;;;;;;9.50;8.50;;;;;;;;5081252;28;46985;-81
2021/08/12 13:35:01;;;;;;;;;13.00;9.00;;;;;;;;5080515;28;46947;-81
2021/08/12 13:37:27;;;;;;;;;11.50;10.25;;;;;;;;5062240;28;46899;-81
2021/08/12 13:39:52;;;;;;;;;8.00;7.00;;;;;;;;5080836;28;47067;-81
2021/08/12 13:42:17;;;;;;;;;12.25;9.25;;;;;;;;5080849;28;46974;-81
2021/08/12 13:44:43;;;;;;;;;11.25;9.00;;;;;;;;5080576;28;46912;-81
2021/08/12 13:47:08;;;;;;;;;12.00;10.75;;;;;;;;5062273;28;46978;-81
2021/08/12 13:49:34;;;;;;;;;8.75;8.50;;;;;;;;5080688;28;46808;-81
2021/08/12 13:52:01;;;;;;;;;12.25;10.00;;;;;;;;5080540;28;46731;-81
2021/08/12 13:54:26;;;;;;;;;8.00;8.00;;;;;;;;5061955;28;47281;-81
2021/08/12 13:56:52;;;;;;;;;9.50;8.75;;;;;;;;5080467;28;46979;-81
2021/08/12 13:59:18;;;;;;;;;12.00;9.75;;;;;;;;5080447;28;46805;-81
2021/08/12 14:01:43;;;;;;;;;13.75;11.00;;;;;;;;5080283;28;47015;-81
2021/08/12 14:04:09;;;;;;;;;10.75;9.00;;;;;;;;5080198;28;47118;-81
2021/08/12 14:06:35;;;;;;;;;11.00;11.00;;;;;;;;5080239;28;47041;-81
2021/08/12 14:09:01;;;;;;;;;10.00;9.00;;;;;;;;5080356;28;46890;-81
2021/08/12 14:11:27;;;;;;;;;11.25;10.50;;;;;;;;5080575;28;46987;-81
2021/08/12 14:13:52;;;;;;;;;9.50;8.25;;;;;;;;5079714;28;47068;-81
2021/08/12 14:16:18;;;;;;;;;9.25;9.25;;;;;;;;5080264;28;46892;-81
2021/08/12 14:18:44;;;;;;;;;11.00;8.75;;;;;;;;5080303;28;46837;-81
2021/08/12 14:21:13;;;;;;;;;13.50;11.50;;;;;;;;5080282;28;46749;-81